createdAt,value
2018-10-21T00:00:45.575Z,31.57
2018-10-21T00:03:16.355Z,31.63
2018-10-21T00:05:46.932Z,30.57
2018-10-21T00:08:17.980Z,30.10
2018-10-21T00:10:49.194Z,30.37
2018-10-21T00:13:19.875Z,29.57
2018-10-21T00:15:50.530Z,29.23
2018-10-21T00:18:21.192Z,27.17
2018-10-21T00:20:51.859Z,27.57
2018-10-21T00:23:22.458Z,27.40
2018-10-21T00:25:53.133Z,31.33
2018-10-21T00:28:23.867Z,29.83
2018-10-21T00:30:54.751Z,34.13
2018-10-21T00:33:25.404Z,31.53
2018-10-21T00:36:25.265Z,30.30
2018-10-21T00:38:56.605Z,30.67
2018-10-21T00:41:27.927Z,31.53
2018-10-21T00:43:59.330Z,30.37
2018-10-21T00:46:31.618Z,28.83
2018-10-21T00:49:02.939Z,32.13
2018-10-21T00:51:34.311Z,29.80
2018-10-21T00:54:14.729Z,31.00
2018-10-21T00:56:47.742Z,32.13
2018-10-21T00:59:19.225Z,30.20
2018-10-21T01:01:50.543Z,32.95
2018-10-21T01:04:21.829Z,32.40
2018-10-21T01:06:53.160Z,32.45
2018-10-21T01:09:24.448Z,33.97
2018-10-21T01:11:55.858Z,31.70
2018-10-21T01:14:27.155Z,35.70
2018-10-21T01:16:58.450Z,35.07
2018-10-21T01:19:29.744Z,32.50
2018-10-21T01:22:01.058Z,29.47
2018-10-21T01:24:32.406Z,30.67
2018-10-21T01:27:03.732Z,36.53
2018-10-21T01:29:35.032Z,33.78
2018-10-21T01:32:06.462Z,35.40
2018-10-21T01:34:37.781Z,37.67
2018-10-21T01:37:09.465Z,35.87
2018-10-21T01:40:21.844Z,39.37
2018-10-21T01:42:53.241Z,32.77
2018-10-21T01:45:24.853Z,34.30
2018-10-21T01:47:57.416Z,38.17
2018-10-21T01:50:28.756Z,33.60
2018-10-21T01:53:01.154Z,39.20
2018-10-21T01:55:33.669Z,34.23
2018-10-21T01:58:05.375Z,36.45
2018-10-21T02:00:36.969Z,40.77
2018-10-21T02:03:08.345Z,38.00
2018-10-21T02:05:39.990Z,43.90
2018-10-21T02:08:11.313Z,50.20
2018-10-21T02:10:42.667Z,43.85
2018-10-21T02:13:58.972Z,49.37
2018-10-21T02:16:30.394Z,44.83
2018-10-21T02:19:01.687Z,41.65
2018-10-21T02:21:33.023Z,40.45
2018-10-21T02:24:04.416Z,43.48
2018-10-21T02:26:35.758Z,48.10
2018-10-21T02:29:07.423Z,39.53
2018-10-21T02:31:38.688Z,40.37
2018-10-21T02:34:10.121Z,39.83
2018-10-21T02:36:41.394Z,44.03
2018-10-21T02:39:12.845Z,40.00
2018-10-21T02:41:57.941Z,42.73
2018-10-21T02:44:29.331Z,38.78
2018-10-21T02:47:00.975Z,42.40
2018-10-21T02:49:32.352Z,44.97
2018-10-21T02:52:13.119Z,44.50
2018-10-21T02:54:44.667Z,43.00
2018-10-21T02:57:16.438Z,43.60
2018-10-21T02:59:47.958Z,58.43
2018-10-21T03:02:19.248Z,60.60
2018-10-21T03:04:50.547Z,61.73
2018-10-21T03:07:21.802Z,50.30
2018-10-21T03:09:53.158Z,51.40
2018-10-21T03:12:24.438Z,47.70
2018-10-21T03:14:56.083Z,49.20
2018-10-21T03:17:27.354Z,42.20
2018-10-21T03:19:59.115Z,47.63
2018-10-21T03:22:30.535Z,45.53
2018-10-21T03:25:01.866Z,48.97
2018-10-21T03:27:33.873Z,51.40
2018-10-21T03:30:05.312Z,48.70
2018-10-21T03:32:36.715Z,50.03
2018-10-21T03:35:08.099Z,50.73
2018-10-21T03:37:39.496Z,53.60
2018-10-21T03:40:10.373Z,52.67
2018-10-21T03:42:41.529Z,52.98
2018-10-21T03:45:13.193Z,55.33
2018-10-21T03:47:45.699Z,52.37
2018-10-21T03:50:17.017Z,50.60
2018-10-21T03:52:48.376Z,49.30
2018-10-21T03:55:19.680Z,49.90
2018-10-21T03:57:50.987Z,55.63
2018-10-21T04:00:22.330Z,55.93
2018-10-21T04:02:53.623Z,58.17
2018-10-21T04:05:25.023Z,58.27
2018-10-21T04:07:56.329Z,53.97
2018-10-21T04:10:27.792Z,51.88
2018-10-21T04:12:59.357Z,62.08
2018-10-21T04:15:30.665Z,50.78
2018-10-21T04:18:01.944Z,61.97
2018-10-21T04:20:33.306Z,60.13
2018-10-21T04:23:05.344Z,57.87
2018-10-21T04:25:37.784Z,62.23
2018-10-21T04:28:09.694Z,52.70
2018-10-21T04:30:42.145Z,56.23
2018-10-21T04:33:15.509Z,46.73
2018-10-21T04:35:46.829Z,46.57
2018-10-21T04:38:53.744Z,51.53
2018-10-21T04:41:25.047Z,52.80
2018-10-21T04:43:56.396Z,56.80
2018-10-21T04:46:27.824Z,51.20
2018-10-21T04:48:59.133Z,55.90
2018-10-21T04:51:30.456Z,68.17
2018-10-21T04:54:02.080Z,58.30
2018-10-21T04:56:33.724Z,59.57
2018-10-21T04:59:05.082Z,61.83
2018-10-21T05:01:36.413Z,64.37
2018-10-21T05:04:07.958Z,67.43
2018-10-21T05:06:39.621Z,68.57
2018-10-21T05:09:10.999Z,53.43
2018-10-21T05:11:42.282Z,55.87
2018-10-21T05:14:13.622Z,65.83
2018-10-21T05:16:45.022Z,61.67
2018-10-21T05:19:16.313Z,67.60
2018-10-21T05:21:47.635Z,66.93
2018-10-21T05:24:18.962Z,72.92
2018-10-21T05:26:50.614Z,63.10
2018-10-21T05:29:21.919Z,61.97
2018-10-21T05:32:31.477Z,70.43
2018-10-21T05:35:02.312Z,69.13
2018-10-21T05:37:32.969Z,62.17
2018-10-21T05:40:03.790Z,57.03
2018-10-21T05:42:34.396Z,60.20
2018-10-21T05:45:10.162Z,56.25
2018-10-21T05:47:44.315Z,63.47
2018-10-21T05:50:19.960Z,64.57
2018-10-21T05:52:54.202Z,66.97
2018-10-21T05:55:28.206Z,75.80
2018-10-21T05:58:04.121Z,74.33
2018-10-21T06:00:38.490Z,81.87
2018-10-21T06:03:09.273Z,77.03
2018-10-21T06:05:49.922Z,76.47
2018-10-21T06:08:20.553Z,61.10
2018-10-21T06:10:51.187Z,73.27
2018-10-21T06:13:21.845Z,80.83
2018-10-21T06:15:52.532Z,79.35
2018-10-21T06:18:24.468Z,76.70
2018-10-21T06:20:58.244Z,80.53
2018-10-21T06:23:29.319Z,84.03
2018-10-21T06:25:59.872Z,77.70
2018-10-21T06:28:30.526Z,81.50
2018-10-21T06:31:01.148Z,79.27
2018-10-21T06:33:31.844Z,81.07
2018-10-21T06:36:02.452Z,78.40
2018-10-21T06:38:33.121Z,77.20
2018-10-21T06:41:03.951Z,78.10
2018-10-21T06:43:35.081Z,69.50
2018-10-21T06:46:05.870Z,63.33
2018-10-21T06:48:36.564Z,65.10
2018-10-21T06:51:07.525Z,63.83
2018-10-21T06:53:38.631Z,71.87
2018-10-21T06:56:09.402Z,72.70
2018-10-21T06:58:40.438Z,72.30
2018-10-21T07:01:11.084Z,75.90
2018-10-21T07:03:42.121Z,70.93
2018-10-21T07:06:30.431Z,70.43
2018-10-21T07:09:05.973Z,78.43
2018-10-21T07:11:36.662Z,84.37
2018-10-21T07:14:07.367Z,82.63
2018-10-21T07:16:38.178Z,81.30
2018-10-21T07:19:08.680Z,77.57
2018-10-21T07:21:39.678Z,73.27
2018-10-21T07:24:10.365Z,72.73
2018-10-21T07:26:41.073Z,69.05
2018-10-21T07:29:11.741Z,71.47
2018-10-21T07:31:42.880Z,77.80
2018-10-21T07:34:13.673Z,76.80
2018-10-21T07:36:44.343Z,70.37
2018-10-21T07:39:14.997Z,71.23
2018-10-21T07:41:45.663Z,70.73
2018-10-21T07:44:16.308Z,76.47
2018-10-21T07:46:46.991Z,68.57
2018-10-21T07:49:17.770Z,71.70
2018-10-21T07:51:48.356Z,70.73
2018-10-21T07:54:19.272Z,68.57
2018-10-21T07:56:49.892Z,72.07
2018-10-21T07:59:20.573Z,69.03
2018-10-21T08:01:51.254Z,68.80
2018-10-21T08:04:21.936Z,73.53
2018-10-21T08:07:28.234Z,73.45
2018-10-21T08:09:58.896Z,77.95
2018-10-21T08:12:29.526Z,75.77
2018-10-21T08:15:00.174Z,71.87
2018-10-21T08:17:31.016Z,79.07
2018-10-21T08:20:01.647Z,73.40
2018-10-21T08:22:32.383Z,78.07
2018-10-21T08:25:03.098Z,77.57
2018-10-21T08:27:33.777Z,77.77
2018-10-21T08:30:04.486Z,77.08
2018-10-21T08:32:35.464Z,74.25
2018-10-21T08:35:06.589Z,75.47
2018-10-21T08:37:37.277Z,75.73
2018-10-21T08:40:08.483Z,74.15
2018-10-21T08:42:39.205Z,72.13
2018-10-21T08:45:09.895Z,75.07
2018-10-21T08:47:40.723Z,67.30
2018-10-21T08:50:11.992Z,74.13
2018-10-21T08:52:42.640Z,70.17
2018-10-21T08:55:13.847Z,68.33
2018-10-21T08:57:44.796Z,67.80
2018-10-21T09:00:20.200Z,68.43
2018-10-21T09:02:50.843Z,68.27
2018-10-21T09:05:21.504Z,75.00
2018-10-21T09:07:52.230Z,67.77
2018-10-21T09:10:23.047Z,61.50
2018-10-21T09:12:53.513Z,67.47
2018-10-21T09:15:24.149Z,67.20
2018-10-21T09:17:54.755Z,62.10
2018-10-21T09:20:25.570Z,62.87
2018-10-21T09:22:56.463Z,61.63
2018-10-21T09:25:27.126Z,65.20
2018-10-21T09:27:57.848Z,60.90
2018-10-21T09:30:28.440Z,61.77
2018-10-21T09:32:59.117Z,63.03
2018-10-21T09:35:29.762Z,60.33
2018-10-21T09:38:00.394Z,59.57
2018-10-21T09:40:31.045Z,55.70
2018-10-21T09:43:01.723Z,60.12
2018-10-21T09:45:33.300Z,55.00
2018-10-21T09:48:03.917Z,58.60
2018-10-21T09:50:35.048Z,62.77
2018-10-21T09:53:06.187Z,56.40
2018-10-21T09:55:36.915Z,51.98
2018-10-21T09:58:07.690Z,53.40
2018-10-21T10:00:56.382Z,58.40
2018-10-21T10:03:27.383Z,50.13
2018-10-21T10:05:58.045Z,52.67
2018-10-21T10:08:28.651Z,55.92
2018-10-21T10:10:59.782Z,49.90
2018-10-21T10:13:30.414Z,53.73
2018-10-21T10:16:01.130Z,47.40
2018-10-21T10:18:31.803Z,49.97
2018-10-21T10:21:02.353Z,49.07
2018-10-21T10:23:33.211Z,50.33
2018-10-21T10:26:04.260Z,51.17
2018-10-21T10:28:35.319Z,51.37
2018-10-21T10:31:05.987Z,48.43
2018-10-21T10:33:36.708Z,46.00
2018-10-21T10:36:07.866Z,47.83
2018-10-21T10:38:38.484Z,51.13
2018-10-21T10:41:09.131Z,48.23
2018-10-21T10:43:39.881Z,48.87
2018-10-21T10:46:10.613Z,48.83
2018-10-21T10:48:41.532Z,45.63
2018-10-21T10:51:12.124Z,47.40
2018-10-21T10:53:43.566Z,48.80
2018-10-21T10:56:14.213Z,46.27
2018-10-21T10:58:44.881Z,43.55
2018-10-21T11:01:15.807Z,47.17
2018-10-21T11:03:46.435Z,43.93
2018-10-21T11:06:18.131Z,45.67
2018-10-21T11:08:48.843Z,47.07
2018-10-21T11:11:19.701Z,44.87
2018-10-21T11:13:50.387Z,45.60
2018-10-21T11:16:21.423Z,45.75
2018-10-21T11:18:52.083Z,50.13
2018-10-21T11:21:22.750Z,44.40
2018-10-21T11:23:53.405Z,41.73
2018-10-21T11:26:24.132Z,41.93
2018-10-21T11:28:55.269Z,39.63
2018-10-21T11:31:25.919Z,40.27
2018-10-21T11:33:56.654Z,38.47
2018-10-21T11:36:27.285Z,35.28
2018-10-21T11:38:57.908Z,34.97
2018-10-21T11:41:28.575Z,36.30
2018-10-21T11:44:01.355Z,35.60
2018-10-21T11:46:32.013Z,31.90
2018-10-21T11:49:08.574Z,28.67
2018-10-21T11:51:39.546Z,33.83
2018-10-21T11:54:10.235Z,40.30
2018-10-21T11:56:41.207Z,31.57
2018-10-21T11:59:12.274Z,35.80
2018-10-21T12:01:43.068Z,30.80
2018-10-21T12:04:13.807Z,31.83
2018-10-21T12:06:44.404Z,29.57
2018-10-21T12:09:15.637Z,27.90
2018-10-21T12:11:46.868Z,25.67
2018-10-21T12:14:17.529Z,26.02
2018-10-21T12:16:48.204Z,29.83
2018-10-21T12:21:43.548Z,27.67
2018-10-21T12:24:14.375Z,23.87
2018-10-21T12:26:45.428Z,25.00
2018-10-21T12:29:16.867Z,28.63
2018-10-21T12:31:47.570Z,32.97
2018-10-21T12:34:47.040Z,31.60
2018-10-21T12:37:20.150Z,30.17
2018-10-21T12:39:51.805Z,34.47
2018-10-21T12:42:23.802Z,31.13
2018-10-21T12:44:55.150Z,34.73
2018-10-21T12:47:26.534Z,32.93
2018-10-21T12:49:57.916Z,29.87
2018-10-21T12:52:29.324Z,30.37
2018-10-21T12:55:01.680Z,28.50
2018-10-21T12:57:35.395Z,36.42
2018-10-21T13:00:07.119Z,36.70
2018-10-21T13:02:38.995Z,35.52
2018-10-21T13:05:10.350Z,33.23
2018-10-21T13:07:41.802Z,37.10
2018-10-21T13:10:13.200Z,39.87
2018-10-21T13:12:44.766Z,36.63
2018-10-21T13:15:16.665Z,34.33
2018-10-21T13:17:48.032Z,35.37
2018-10-21T13:20:20.788Z,33.57
2018-10-21T13:22:52.154Z,35.57
2018-10-21T13:25:23.873Z,38.93
2018-10-21T13:27:55.220Z,40.23
2018-10-21T13:30:26.956Z,37.03
2018-10-21T13:32:58.692Z,39.67
2018-10-21T13:35:30.480Z,40.57
2018-10-21T13:38:02.669Z,37.85
2018-10-21T13:40:34.509Z,39.05
2018-10-21T13:43:06.830Z,37.83
2018-10-21T13:45:38.447Z,35.23
2018-10-21T13:48:09.999Z,38.23
2018-10-21T13:50:42.565Z,34.87
2018-10-21T13:53:13.962Z,37.27
2018-10-21T13:55:46.011Z,37.40
2018-10-21T13:58:17.429Z,39.00
2018-10-21T14:00:49.020Z,39.47
2018-10-21T14:03:20.365Z,40.00
2018-10-21T14:05:52.170Z,31.97
2018-10-21T14:08:24.577Z,36.37
2018-10-21T14:10:55.965Z,33.50
2018-10-21T14:13:27.377Z,31.63
2018-10-21T14:16:00.343Z,30.80
2018-10-21T14:18:31.979Z,34.40
2018-10-21T14:21:03.650Z,27.17
2018-10-21T14:23:35.027Z,30.27
2018-10-21T14:26:07.303Z,29.97
2018-10-21T14:28:39.020Z,27.57
2018-10-21T14:31:10.384Z,26.93
2018-10-21T14:33:41.692Z,25.60
2018-10-21T14:36:13.690Z,28.63
2018-10-21T14:38:45.481Z,31.67
2018-10-21T14:41:17.192Z,29.90
2018-10-21T14:43:48.800Z,27.07
2018-10-21T14:46:22.180Z,24.10
2018-10-21T14:48:53.508Z,25.17
2018-10-21T14:51:25.391Z,24.03
2018-10-21T14:53:57.246Z,24.75
2018-10-21T14:56:29.344Z,25.10
2018-10-21T14:59:00.676Z,26.00
2018-10-21T15:01:34.597Z,23.37
2018-10-21T15:04:06.558Z,24.63
2018-10-21T15:06:38.369Z,25.00
2018-10-21T15:09:16.421Z,24.13
2018-10-21T15:11:55.353Z,24.30
2018-10-21T15:14:31.943Z,26.67
2018-10-21T15:17:19.139Z,22.77
2018-10-21T15:19:57.213Z,22.67
2018-10-21T15:22:30.613Z,20.80
2018-10-21T15:25:02.454Z,22.97
2018-10-21T15:27:35.356Z,22.23
2018-10-21T15:30:08.867Z,22.47
2018-10-21T15:32:43.432Z,23.73
2018-10-21T15:35:14.817Z,22.73
2018-10-21T15:37:47.179Z,24.10
2018-10-21T15:40:18.935Z,22.50
2018-10-21T15:42:50.433Z,24.30
2018-10-21T15:45:21.773Z,22.37
2018-10-21T15:47:55.025Z,22.82
2018-10-21T15:50:26.500Z,20.87
2018-10-21T15:52:58.438Z,21.48
2018-10-21T15:55:29.787Z,21.70
2018-10-21T15:58:10.558Z,19.83
2018-10-21T16:00:43.282Z,19.20
2018-10-21T16:03:14.639Z,20.97
2018-10-21T16:05:46.250Z,21.00
2018-10-21T16:08:18.274Z,22.90
2018-10-21T16:10:49.860Z,18.53
2018-10-21T16:13:21.293Z,24.87
2018-10-21T16:15:52.663Z,24.72
2018-10-21T16:18:24.041Z,19.07
2018-10-21T16:20:55.424Z,19.85
2018-10-21T16:23:27.146Z,19.40
2018-10-21T16:25:58.651Z,17.87
2018-10-21T16:28:31.850Z,21.47
2018-10-21T16:31:03.237Z,23.63
2018-10-21T16:33:35.225Z,20.17
2018-10-21T16:36:08.492Z,18.40
2018-10-21T16:38:43.308Z,21.50
2018-10-21T16:41:14.753Z,19.80
2018-10-21T16:43:46.364Z,20.13
2018-10-21T16:46:18.452Z,19.20
2018-10-21T16:48:49.884Z,18.27
2018-10-21T16:51:21.633Z,21.77
2018-10-21T16:53:52.996Z,21.00
2018-10-21T16:56:24.848Z,19.17
2018-10-21T16:58:56.398Z,23.03
2018-10-21T17:01:27.692Z,19.97
2018-10-21T17:04:01.609Z,19.10
2018-10-21T17:06:33.062Z,25.80
2018-10-21T17:09:04.485Z,22.00
2018-10-21T17:11:35.899Z,22.57
2018-10-21T17:14:07.291Z,21.03
2018-10-21T17:16:45.560Z,18.47
2018-10-21T17:19:17.084Z,24.10
2018-10-21T17:21:48.379Z,20.90
2018-10-21T17:24:20.723Z,20.20
2018-10-21T17:26:52.242Z,20.37
2018-10-21T17:29:24.176Z,18.63
2018-10-21T17:31:55.563Z,18.73
2018-10-21T17:34:26.995Z,18.57
2018-10-21T17:37:00.505Z,19.40
2018-10-21T17:39:31.690Z,19.40
2018-10-21T17:42:03.057Z,17.47
2018-10-21T17:44:34.993Z,18.03
2018-10-21T17:47:06.483Z,19.03
2018-10-21T17:49:38.253Z,22.97
2018-10-21T17:52:11.849Z,19.33
2018-10-21T17:54:43.706Z,18.03
2018-10-21T17:57:15.898Z,20.80
2018-10-21T17:59:47.627Z,19.57
2018-10-21T18:02:19.243Z,21.17
2018-10-21T18:04:50.541Z,19.97
2018-10-21T18:07:21.908Z,17.57
2018-10-21T18:09:54.067Z,17.93
2018-10-21T18:12:25.634Z,15.57
2018-10-21T18:14:57.721Z,15.33
2018-10-21T18:17:29.620Z,16.63
2018-10-21T18:20:01.175Z,16.90
2018-10-21T18:22:33.769Z,19.10
2018-10-21T18:25:05.315Z,16.63
2018-10-21T18:27:37.538Z,13.97
2018-10-21T18:30:10.209Z,18.23
2018-10-21T18:32:42.010Z,18.57
2018-10-21T18:35:14.949Z,16.00
2018-10-21T18:37:46.387Z,15.40
2018-10-21T18:40:17.823Z,16.40
2018-10-21T18:42:49.276Z,16.50
2018-10-21T18:45:20.403Z,15.50
2018-10-21T18:55:40.900Z,17.67
2018-10-21T18:58:51.497Z,18.30
2018-10-21T19:01:35.540Z,17.00
2018-10-21T19:04:10.377Z,18.30
2018-10-21T19:06:42.025Z,18.23
2018-10-21T19:09:14.328Z,18.27
2018-10-21T19:11:45.843Z,16.90
2018-10-21T19:14:17.159Z,14.53
2018-10-21T19:16:49.019Z,18.20
2018-10-21T19:19:20.743Z,23.53
2018-10-21T19:21:53.080Z,16.97
2018-10-21T19:24:24.954Z,15.63
2018-10-21T19:26:56.659Z,13.90
2018-10-21T19:29:32.381Z,16.10
2018-10-21T19:32:03.861Z,17.07
2018-10-21T19:34:35.465Z,15.33
2018-10-21T19:37:07.328Z,12.90
2018-10-21T19:39:38.879Z,13.57
2018-10-21T19:42:10.269Z,18.97
2018-10-21T19:44:42.004Z,13.13
2018-10-21T19:47:13.850Z,16.60
2018-10-21T19:49:46.609Z,15.33
2018-10-21T19:53:30.502Z,16.30
2018-10-21T20:07:47.732Z,16.63
2018-10-21T20:10:31.125Z,16.90
2018-10-21T20:12:59.374Z,16.03
2018-10-21T20:15:30.946Z,16.00
2018-10-21T20:18:02.711Z,19.17
2018-10-21T20:20:34.150Z,16.57
2018-10-21T20:23:06.812Z,16.67
2018-10-21T20:25:38.769Z,15.97
2018-10-21T20:28:10.093Z,20.67
2018-10-21T20:30:41.820Z,19.17
2018-10-21T20:33:13.296Z,17.27
2018-10-21T20:35:44.781Z,18.57
2018-10-21T20:38:16.213Z,19.87
2018-10-21T20:40:47.778Z,17.47
2018-10-21T20:43:20.567Z,17.00
2018-10-21T20:45:52.039Z,12.13
2018-10-21T20:48:23.343Z,15.00
2018-10-21T20:50:54.766Z,14.13
2018-10-21T20:53:26.276Z,13.27
2018-10-21T20:55:57.767Z,16.57
2018-10-21T20:58:29.563Z,18.63
2018-10-21T21:01:00.958Z,14.87
2018-10-21T21:03:32.223Z,12.63
2018-10-21T21:06:04.587Z,12.40
2018-10-21T21:08:36.443Z,13.63
2018-10-21T21:11:08.976Z,14.43
2018-10-21T21:13:44.034Z,12.87
2018-10-21T21:16:15.768Z,13.50
2018-10-21T21:18:47.059Z,14.03
2018-10-21T21:21:19.337Z,13.07
2018-10-21T21:23:50.653Z,13.47
2018-10-21T21:26:23.010Z,14.80
2018-10-21T21:28:54.888Z,15.30
2018-10-21T21:31:27.051Z,15.57
2018-10-21T21:33:59.384Z,11.90
2018-10-21T21:36:30.905Z,19.47
2018-10-21T21:39:02.520Z,12.33
2018-10-21T21:41:33.834Z,14.40
2018-10-21T21:44:05.318Z,15.47
2018-10-21T21:46:37.728Z,13.23
2018-10-21T21:49:10.511Z,13.17
2018-10-21T21:51:42.114Z,13.67
2018-10-21T21:54:14.562Z,12.07
2018-10-21T21:56:46.670Z,13.93
2018-10-21T21:59:18.207Z,13.37
2018-10-21T22:01:49.962Z,11.43
2018-10-21T22:04:22.317Z,14.13
2018-10-21T22:06:54.347Z,13.70
2018-10-21T22:09:25.669Z,18.90
2018-10-21T22:11:57.423Z,13.57
2018-10-21T22:14:28.720Z,17.50
2018-10-21T22:17:00.044Z,11.87
2018-10-21T22:19:32.365Z,17.17
2018-10-21T22:22:03.790Z,12.87
2018-10-21T22:24:43.882Z,13.20
2018-10-21T22:27:15.292Z,14.80
2018-10-21T22:29:47.802Z,12.67
2018-10-21T22:32:19.122Z,12.77
2018-10-21T22:34:50.751Z,10.77
2018-10-21T22:37:24.146Z,10.47
2018-10-21T22:39:55.852Z,11.60
2018-10-21T22:42:27.946Z,13.67
2018-10-21T22:45:04.434Z,15.07
2018-10-21T22:47:36.565Z,16.43
2018-10-21T22:50:09.538Z,13.57
2018-10-21T22:52:41.217Z,15.00
2018-10-21T22:55:16.536Z,18.63
2018-10-21T22:57:48.829Z,14.77
2018-10-21T23:00:20.222Z,15.57
2018-10-21T23:02:54.785Z,13.73
2018-10-21T23:05:27.279Z,19.30
2018-10-21T23:07:59.046Z,16.80
2018-10-21T23:10:43.380Z,17.40
2018-10-21T23:13:14.885Z,17.70
2018-10-21T23:15:46.899Z,17.33
2018-10-21T23:18:18.463Z,20.03
2018-10-21T23:20:49.766Z,20.67
2018-10-21T23:23:21.526Z,25.47
2018-10-21T23:25:53.153Z,21.20
2018-10-21T23:28:24.522Z,20.43
2018-10-21T23:30:56.316Z,16.17
2018-10-21T23:33:28.029Z,18.13
2018-10-21T23:35:59.767Z,18.47
2018-10-21T23:38:31.081Z,22.80
2018-10-21T23:41:02.478Z,19.03
2018-10-21T23:43:33.788Z,20.17
2018-10-21T23:46:05.229Z,19.60
2018-10-21T23:48:36.967Z,21.20
2018-10-21T23:51:08.324Z,21.47
2018-10-21T23:53:44.770Z,21.37
2018-10-21T23:56:22.968Z,22.50
2018-10-21T23:58:55.164Z,22.73
